AUR12 EGJB-EGJA

Flight info

Callsign AUR12
Flight time 0h 12m
Altitude 7000
Route GUR DCT ALD
Aircraft DHC6/L-SDFGR/C

Departure

Time 2026-04-20 14:40
Airport Guernsey Airport (EGJB)

Arrival

Time 2026-04-20 14:52
Airport Alderney Airport (EGJA)
Time Latitude Longitude Altitude Speed Heading
2026-04-20 14:24 49.43276 -2.59564 337 ft 0 kts 180°
2026-04-20 14:36 49.43274 -2.59563 337 ft 0 kts 154°
2026-04-20 14:36 49.43276 -2.59556 337 ft 0 kts
2026-04-20 14:36 49.43291 -2.59572 337 ft 4 kts 342°
2026-04-20 14:37 49.43330 -2.59569 337 ft 6 kts
2026-04-20 14:37 49.43363 -2.59596 336 ft 8 kts 265°
2026-04-20 14:37 49.43361 -2.59713 335 ft 13 kts 259°
2026-04-20 14:37 49.43346 -2.59819 333 ft 10 kts 265°
2026-04-20 14:38 49.43359 -2.59861 332 ft 5 kts
2026-04-20 14:38 49.43400 -2.59859 332 ft 6 kts
2026-04-20 14:38 49.43449 -2.59860 332 ft 7 kts 353°
2026-04-20 14:38 49.43492 -2.59865 332 ft 3 kts 358°
2026-04-20 14:39 49.43504 -2.59851 332 ft 0 kts 80°
2026-04-20 14:39 49.43504 -2.59850 332 ft 2 kts 80°
2026-04-20 14:39 49.43503 -2.59225 452 ft 104 kts 87°
2026-04-20 14:39 49.43754 -2.58125 890 ft 117 kts 45°
2026-04-20 14:40 49.44475 -2.57439 1222 ft 127 kts 32°
2026-04-20 14:40 49.45253 -2.56783 1587 ft 132 kts 27°
2026-04-20 14:40 49.46058 -2.56231 2049 ft 127 kts 32°
2026-04-20 14:40 49.46705 -2.55350 2459 ft 127 kts 46°
2026-04-20 14:41 49.47320 -2.54398 2895 ft 127 kts 46°
2026-04-20 14:41 49.47932 -2.53431 3317 ft 127 kts 47°
2026-04-20 14:41 49.48555 -2.52454 3749 ft 127 kts 47°
2026-04-20 14:41 49.49164 -2.51481 4169 ft 127 kts 48°
2026-04-20 14:42 49.49768 -2.50511 4579 ft 127 kts 49°
2026-04-20 14:42 49.50384 -2.49532 4964 ft 128 kts 49°
2026-04-20 14:42 49.51002 -2.48542 5290 ft 129 kts 49°
2026-04-20 14:42 49.51619 -2.47548 5601 ft 130 kts 49°
2026-04-20 14:43 49.52246 -2.46536 5904 ft 132 kts 49°
2026-04-20 14:43 49.52877 -2.45513 6210 ft 133 kts 48°
2026-04-20 14:43 49.53513 -2.44484 6525 ft 134 kts 48°
2026-04-20 14:43 49.54155 -2.43441 6833 ft 136 kts 47°
2026-04-20 14:44 49.54803 -2.42389 7132 ft 137 kts 47°
2026-04-20 14:44 49.55464 -2.41313 7426 ft 138 kts 47°
2026-04-20 14:44 49.56121 -2.40242 7709 ft 139 kts 47°
2026-04-20 14:44 49.56810 -2.39117 7768 ft 150 kts 47°
2026-04-20 14:45 49.57506 -2.37979 7750 ft 142 kts 46°
2026-04-20 14:45 49.58168 -2.36900 7749 ft 137 kts 46°
2026-04-20 14:45 49.58810 -2.35849 7651 ft 134 kts 46°
2026-04-20 14:45 49.59456 -2.34790 7384 ft 135 kts 47°
2026-04-20 14:46 49.60123 -2.33767 7132 ft 136 kts 34°
2026-04-20 14:46 49.61047 -2.33565 6893 ft 140 kts 349°
2026-04-20 14:46 49.61919 -2.34229 6659 ft 142 kts 333°
2026-04-20 14:46 49.62770 -2.35024 6412 ft 141 kts 333°
2026-04-20 14:47 49.63595 -2.35810 6013 ft 141 kts 333°
2026-04-20 14:47 49.64417 -2.36599 5606 ft 140 kts 333°
2026-04-20 14:47 49.65239 -2.37360 5188 ft 138 kts 342°
2026-04-20 14:48 49.66729 -2.36410 4376 ft 124 kts 61°
2026-04-20 14:48 49.67369 -2.35544 3959 ft 125 kts 32°
2026-04-20 14:48 49.68131 -2.34948 3565 ft 124 kts 30°
2026-04-20 14:48 49.68903 -2.34375 3171 ft 123 kts 30°
2026-04-20 14:49 49.69439 -2.33444 2760 ft 118 kts 73°
2026-04-20 14:49 49.69529 -2.32199 2340 ft 117 kts 86°
2026-04-20 14:49 49.69547 -2.30978 1922 ft 115 kts 88°
2026-04-20 14:49 49.69613 -2.29774 1547 ft 109 kts 80°
2026-04-20 14:50 49.69756 -2.28709 1382 ft 93 kts 77°
2026-04-20 14:50 49.69893 -2.27811 1204 ft 84 kts 76°
2026-04-20 14:50 49.70003 -2.26857 1051 ft 98 kts 81°
2026-04-20 14:50 49.70131 -2.25767 1013 ft 101 kts 79°
2026-04-20 14:51 49.70260 -2.24824 985 ft 81 kts 77°
2026-04-20 14:51 49.70373 -2.23960 779 ft 80 kts 81°
2026-04-20 14:51 49.70476 -2.23133 529 ft 79 kts 79°
2026-04-20 14:51 49.70572 -2.22314 344 ft 76 kts 81°
2026-04-20 14:52 49.70649 -2.21658 304 ft 40 kts 79°
2026-04-20 14:52 49.70680 -2.21411 303 ft 10 kts 78°
2026-04-20 14:52 49.70681 -2.21399 303 ft 1 kts 73°
2026-04-20 14:52 49.70677 -2.21402 302 ft 0 kts 329°
2026-04-20 14:53 49.70678 -2.21435 301 ft 6 kts 260°
2026-04-20 14:53 49.70674 -2.21472 301 ft 1 kts 260°
2026-04-20 14:53 49.70670 -2.21521 301 ft 7 kts 279°
2026-04-20 14:53 49.70714 -2.21561 301 ft 7 kts 341°
2026-04-20 14:54 49.70761 -2.21574 301 ft 5 kts 18°
2026-04-20 14:54 49.70779 -2.21554 301 ft 1 kts 53°
2026-04-20 14:54 49.70795 -2.21497 301 ft 9 kts 68°
2026-04-20 14:54 49.70805 -2.21461 301 ft 0 kts 68°
2026-04-20 14:55 49.70820 -2.21419 301 ft 4 kts 39°
2026-04-20 14:55 49.70828 -2.21418 301 ft 2 kts 342°
2026-04-20 14:55 49.70855 -2.21434 301 ft 0 kts 342°